createdAt,value
2015-05-14T00:00:05.709Z,26.6
2015-05-14T00:00:24.900Z,26.6
2015-05-14T00:00:43.368Z,26.6
2015-05-14T00:01:01.806Z,26.6
2015-05-14T00:01:20.230Z,26.6
2015-05-14T00:01:38.917Z,26.6
2015-05-14T00:01:57.699Z,26.6
2015-05-14T00:02:16.138Z,26.6
2015-05-14T00:02:34.872Z,26.6
2015-05-14T00:02:53.529Z,26.6
2015-05-14T00:03:12.138Z,26.6
2015-05-14T00:03:30.860Z,26.6
2015-05-14T00:03:49.329Z,26.6
2015-05-14T00:04:08.125Z,26.6
2015-05-14T00:04:26.517Z,26.6
2015-05-14T00:04:44.986Z,26.6
2015-05-14T00:05:03.673Z,26.5
2015-05-14T00:05:22.239Z,26.5
2015-05-14T00:05:40.629Z,26.5
2015-05-14T00:05:59.067Z,26.5
2015-05-14T00:06:17.461Z,26.5
2015-05-14T00:06:35.945Z,26.5
2015-05-14T00:06:54.351Z,26.5
2015-05-14T00:07:13.070Z,26.5
2015-05-14T00:07:31.509Z,26.5
2015-05-14T00:07:49.900Z,26.5
2015-05-14T00:08:08.447Z,26.5
2015-05-14T00:08:26.558Z,26.5
2015-05-14T00:08:44.949Z,26.5
2015-05-14T00:09:03.480Z,26.4
2015-05-14T00:09:21.889Z,26.4
2015-05-14T00:09:40.468Z,26.4
2015-05-14T00:09:58.264Z,26.4
2015-05-14T00:10:16.968Z,26.4
2015-05-14T00:10:35.829Z,26.4
2015-05-14T00:10:54.360Z,26.4
2015-05-14T00:11:12.782Z,26.4
2015-05-14T00:11:31.207Z,26.4
2015-05-14T00:11:49.598Z,26.4
2015-05-14T00:12:08.191Z,26.4
2015-05-14T00:12:26.786Z,26.3
2015-05-14T00:12:45.317Z,26.3
2015-05-14T00:13:03.786Z,26.3
2015-05-14T00:13:22.583Z,26.3
2015-05-14T00:13:41.117Z,26.3
2015-05-14T00:13:59.617Z,26.3
2015-05-14T00:14:18.398Z,26.3
2015-05-14T00:14:36.807Z,26.3
2015-05-14T00:14:55.432Z,26.3
2015-05-14T00:15:13.994Z,26.3
2015-05-14T00:15:32.510Z,26.3
2015-05-14T00:15:51.262Z,26.3
2015-05-14T00:16:09.668Z,26.3
2015-05-14T00:16:28.262Z,26.3
2015-05-14T00:16:47.016Z,26.3
2015-05-14T00:17:05.594Z,26.3
2015-05-14T00:17:24.203Z,26.3
2015-05-14T00:17:42.828Z,26.3
2015-05-14T00:18:01.423Z,26.3
2015-05-14T00:18:19.861Z,26.3
2015-05-14T00:18:38.345Z,26.2
2015-05-14T00:18:56.692Z,26.2
2015-05-14T00:19:15.442Z,26.2
2015-05-14T00:19:33.832Z,26.2
2015-05-14T00:19:52.257Z,26.2
2015-05-14T00:20:10.804Z,26.2
2015-05-14T00:20:29.523Z,26.2
2015-05-14T00:20:47.961Z,26.2
2015-05-14T00:21:06.555Z,26.2
2015-05-14T00:21:25.055Z,26.2
2015-05-14T00:21:43.696Z,26.2
2015-05-14T00:22:02.230Z,26.2
2015-05-14T00:22:20.902Z,26.2
2015-05-14T00:22:39.542Z,26.2
2015-05-14T00:22:57.983Z,26.2
2015-05-14T00:23:16.561Z,26.2
2015-05-14T00:23:35.155Z,26.2
2015-05-14T00:23:53.765Z,26.2
2015-05-14T00:24:12.234Z,26.2
2015-05-14T00:24:31.187Z,26.1
2015-05-14T00:24:49.815Z,26.1
2015-05-14T00:25:08.596Z,26.1
2015-05-14T00:25:27.284Z,26.1
2015-05-14T00:25:45.721Z,26.1
2015-05-14T00:26:04.270Z,26.1
2015-05-14T00:26:22.848Z,26.1
2015-05-14T00:26:41.442Z,26.1
2015-05-14T00:27:00.008Z,26.1
2015-05-14T00:27:18.398Z,26.1
2015-05-14T00:27:37.008Z,26.1
2015-05-14T00:27:55.478Z,26.1
2015-05-14T00:28:13.666Z,26.1
2015-05-14T00:28:32.260Z,26.1
2015-05-14T00:28:50.869Z,26.1
2015-05-14T00:29:09.355Z,26.1
2015-05-14T00:29:28.152Z,26.1
2015-05-14T00:29:46.590Z,26.1
2015-05-14T00:30:04.857Z,26.1
2015-05-14T00:30:23.451Z,26.1
2015-05-14T00:30:42.060Z,26.1
2015-05-14T00:31:00.704Z,26.1
2015-05-14T00:31:19.173Z,26.1
2015-05-14T00:31:37.657Z,26.1
2015-05-14T00:31:56.157Z,26.1
2015-05-14T00:32:14.566Z,26.1
2015-05-14T00:32:33.270Z,26.1
2015-05-14T00:32:51.801Z,26.1
2015-05-14T00:33:10.193Z,26.1
2015-05-14T00:33:29.084Z,26.1
2015-05-14T00:33:47.725Z,26.1
2015-05-14T00:34:06.272Z,26.1
2015-05-14T00:34:24.820Z,26.1
2015-05-14T00:34:43.336Z,26.1
2015-05-14T00:35:02.149Z,26.1
2015-05-14T00:35:20.730Z,26.1
2015-05-14T00:35:39.292Z,26.1
2015-05-14T00:35:58.011Z,26.2
2015-05-14T00:36:16.685Z,26.2
2015-05-14T00:36:35.154Z,26.2
2015-05-14T00:36:53.607Z,26.2
2015-05-14T00:37:12.157Z,26.2
2015-05-14T00:37:30.719Z,26.2
2015-05-14T00:37:49.563Z,26.2
2015-05-14T00:38:08.125Z,26.2
2015-05-14T00:38:26.783Z,26.2
2015-05-14T00:38:45.173Z,26.2
2015-05-14T00:39:03.658Z,26.2
2015-05-14T00:39:21.520Z,26.2
2015-05-14T00:39:40.489Z,26.2
2015-05-14T00:39:59.364Z,26.2
2015-05-14T00:40:17.959Z,26.2
2015-05-14T00:40:36.366Z,26.2
2015-05-14T00:40:54.834Z,26.2
2015-05-14T00:41:13.334Z,26.2
2015-05-14T00:41:31.869Z,26.2
2015-05-14T00:41:50.494Z,26.2
2015-05-14T00:42:09.291Z,26.2
2015-05-14T00:42:27.918Z,26.2
2015-05-14T00:42:46.574Z,26.2
2015-05-14T00:43:05.261Z,26.2
2015-05-14T00:43:23.888Z,26.3
2015-05-14T00:43:42.482Z,26.3
2015-05-14T00:44:03.888Z,26.3
2015-05-14T00:44:22.579Z,26.3
2015-05-14T00:44:40.985Z,26.3
2015-05-14T00:44:59.719Z,26.3
2015-05-14T00:45:18.391Z,26.3
2015-05-14T00:45:36.831Z,26.3
2015-05-14T00:45:55.237Z,26.3
2015-05-14T00:46:13.643Z,26.3
2015-05-14T00:46:32.209Z,26.3
2015-05-14T00:46:50.662Z,26.3
2015-05-14T00:47:09.115Z,26.3
2015-05-14T00:47:27.506Z,26.3
2015-05-14T00:47:45.899Z,26.3
2015-05-14T00:48:04.712Z,26.3
2015-05-14T00:48:23.243Z,26.3
2015-05-14T00:48:41.729Z,26.4
2015-05-14T00:49:00.167Z,26.4
2015-05-14T00:49:18.667Z,26.4
2015-05-14T00:49:37.261Z,26.4
2015-05-14T00:49:56.185Z,26.4
2015-05-14T00:50:14.653Z,26.4
2015-05-14T00:50:33.388Z,26.4
2015-05-14T00:50:51.952Z,26.4
2015-05-14T00:51:10.452Z,26.4
2015-05-14T00:51:29.077Z,26.4
2015-05-14T00:51:47.877Z,26.4
2015-05-14T00:52:06.424Z,26.4
2015-05-14T00:52:24.236Z,26.4
2015-05-14T00:52:42.629Z,26.4
2015-05-14T00:53:01.176Z,26.4
2015-05-14T00:53:19.567Z,26.4
2015-05-14T00:53:38.035Z,26.4
2015-05-14T00:53:56.601Z,26.4
2015-05-14T00:54:15.148Z,26.5
2015-05-14T00:54:33.538Z,26.5
2015-05-14T00:54:52.134Z,26.5
2015-05-14T00:55:10.853Z,26.5
2015-05-14T00:55:29.353Z,26.5
2015-05-14T00:55:47.792Z,26.5
2015-05-14T00:56:06.417Z,26.5
2015-05-14T00:56:24.886Z,26.5
2015-05-14T00:56:43.542Z,26.5
2015-05-14T00:57:01.952Z,26.5
2015-05-14T00:57:20.514Z,26.5
2015-05-14T00:57:38.936Z,26.5
2015-05-14T00:57:57.532Z,26.5
2015-05-14T00:58:16.157Z,26.5
2015-05-14T00:58:34.782Z,26.5
2015-05-14T00:58:53.300Z,26.5
2015-05-14T00:59:11.847Z,26.5
2015-05-14T00:59:30.582Z,26.5
2015-05-14T00:59:48.973Z,26.5
2015-05-14T01:00:07.504Z,26.5
2015-05-14T01:00:25.286Z,26.5
2015-05-14T01:00:43.864Z,26.5
2015-05-14T01:01:02.617Z,26.5
2015-05-14T01:01:21.007Z,26.5
2015-05-14T01:01:39.476Z,26.5
2015-05-14T01:01:57.338Z,26.5
2015-05-14T01:02:15.744Z,26.5
2015-05-14T01:02:34.134Z,26.5
2015-05-14T01:02:52.591Z,26.5
2015-05-14T01:03:11.012Z,26.5
2015-05-14T01:03:29.419Z,26.5
2015-05-14T01:03:47.903Z,26.5
2015-05-14T01:04:06.655Z,26.5
2015-05-14T01:04:25.327Z,26.5
2015-05-14T01:04:43.811Z,26.5
2015-05-14T01:05:02.298Z,26.5
2015-05-14T01:05:20.720Z,26.5
2015-05-14T01:05:39.126Z,26.5
2015-05-14T01:05:57.644Z,26.5
2015-05-14T01:06:16.238Z,26.5
2015-05-14T01:06:34.832Z,26.5
2015-05-14T01:06:53.301Z,26.5
2015-05-14T01:07:11.740Z,26.5
2015-05-14T01:07:30.178Z,26.5
2015-05-14T01:07:48.568Z,26.5
2015-05-14T01:08:07.462Z,26.5
2015-05-14T01:08:25.946Z,26.5
2015-05-14T01:08:44.556Z,26.5
2015-05-14T01:09:03.009Z,26.5
2015-05-14T01:09:21.401Z,26.5
2015-05-14T01:09:39.808Z,26.5
2015-05-14T01:09:58.339Z,26.6
2015-05-14T01:10:16.857Z,26.6
2015-05-14T01:10:35.575Z,26.6
2015-05-14T01:10:54.013Z,26.6
2015-05-14T01:11:12.466Z,26.6
2015-05-14T01:11:30.891Z,26.6
2015-05-14T01:11:49.281Z,26.6
2015-05-14T01:12:07.860Z,26.6
2015-05-14T01:12:26.394Z,26.6
2015-05-14T01:12:44.847Z,26.6
2015-05-14T01:13:03.378Z,26.6
2015-05-14T01:13:21.831Z,26.6
2015-05-14T01:13:40.443Z,26.6
2015-05-14T01:13:58.896Z,26.7
2015-05-14T01:14:17.286Z,26.7
2015-05-14T01:14:35.804Z,26.7
2015-05-14T01:14:54.398Z,26.7
2015-05-14T01:15:13.117Z,26.7
2015-05-14T01:15:31.713Z,26.7
2015-05-14T01:15:50.245Z,26.7
2015-05-14T01:16:08.901Z,26.7
2015-05-14T01:16:27.497Z,26.7
2015-05-14T01:16:45.934Z,26.7
2015-05-14T01:17:04.637Z,26.7
2015-05-14T01:17:23.059Z,26.7
2015-05-14T01:17:41.592Z,26.7
2015-05-14T01:17:59.999Z,26.7
2015-05-14T01:18:18.624Z,26.7
2015-05-14T01:18:37.016Z,26.7
2015-05-14T01:18:55.672Z,26.7
2015-05-14T01:19:14.157Z,26.8
2015-05-14T01:19:32.769Z,26.8
2015-05-14T01:19:51.363Z,26.8
2015-05-14T01:20:09.894Z,26.8
2015-05-14T01:20:28.754Z,26.8
2015-05-14T01:20:47.381Z,26.8
2015-05-14T01:21:06.193Z,26.8
2015-05-14T01:21:24.662Z,26.8
2015-05-14T01:21:43.165Z,26.8
2015-05-14T01:22:01.852Z,26.9
2015-05-14T01:22:20.259Z,26.9
2015-05-14T01:22:38.698Z,26.9
2015-05-14T01:22:57.307Z,26.9
2015-05-14T01:23:15.854Z,26.9
2015-05-14T01:23:34.325Z,26.9
2015-05-14T01:23:53.013Z,26.9
2015-05-14T01:24:11.544Z,26.9
2015-05-14T01:24:29.950Z,26.9
2015-05-14T01:24:48.937Z,26.9
2015-05-14T01:25:07.391Z,26.9
2015-05-14T01:25:25.969Z,26.9
2015-05-14T01:25:44.252Z,26.9
2015-05-14T01:26:02.658Z,26.9
2015-05-14T01:26:21.064Z,26.9
2015-05-14T01:26:39.567Z,26.9
2015-05-14T01:26:58.271Z,26.9
2015-05-14T01:27:16.833Z,26.9
2015-05-14T01:27:35.255Z,26.9
2015-05-14T01:27:53.803Z,26.9
2015-05-14T01:28:12.428Z,26.9
2015-05-14T01:28:30.990Z,26.9
2015-05-14T01:29:08.713Z,26.9
2015-05-14T01:29:27.510Z,26.9
2015-05-14T01:29:45.901Z,26.9
2015-05-14T01:30:04.387Z,26.9
2015-05-14T01:30:22.903Z,26.9
2015-05-14T01:30:41.449Z,26.9
2015-05-14T01:31:00.233Z,26.9
2015-05-14T01:31:18.623Z,26.9
2015-05-14T01:31:37.123Z,26.9
2015-05-14T01:31:55.564Z,26.9
2015-05-14T01:32:14.189Z,26.9
2015-05-14T01:32:32.673Z,27
2015-05-14T01:32:51.347Z,27
2015-05-14T01:33:10.175Z,27
2015-05-14T01:33:28.675Z,27
2015-05-14T01:33:47.394Z,27
2015-05-14T01:34:06.038Z,27
2015-05-14T01:34:24.475Z,27
2015-05-14T01:34:43.256Z,27
2015-05-14T01:35:01.757Z,27
2015-05-14T01:35:20.460Z,27
2015-05-14T01:35:38.898Z,27
2015-05-14T01:35:57.760Z,27
2015-05-14T01:36:16.151Z,27
2015-05-14T01:36:34.604Z,27
2015-05-14T01:36:53.010Z,27
2015-05-14T01:37:11.825Z,27
2015-05-14T01:37:30.215Z,27
2015-05-14T01:37:48.637Z,27
2015-05-14T01:38:07.484Z,27
2015-05-14T01:38:26.093Z,27
2015-05-14T01:38:44.562Z,27
2015-05-14T01:39:02.970Z,27
2015-05-14T01:39:21.486Z,27
2015-05-14T01:39:40.064Z,27
2015-05-14T01:39:58.691Z,26.9
2015-05-14T01:40:17.082Z,26.9
2015-05-14T01:40:35.629Z,26.9
2015-05-14T01:40:54.051Z,26.9
2015-05-14T01:41:12.663Z,26.9
2015-05-14T01:41:31.132Z,26.9
2015-05-14T01:41:49.554Z,26.9
2015-05-14T01:42:08.071Z,26.9
2015-05-14T01:42:26.696Z,26.9
2015-05-14T01:42:45.181Z,26.9
2015-05-14T01:43:03.684Z,26.9
2015-05-14T01:43:22.262Z,26.9
2015-05-14T01:43:40.934Z,26.9
2015-05-14T01:43:59.949Z,26.9
2015-05-14T01:44:18.514Z,26.9
2015-05-14T01:44:37.061Z,26.8
2015-05-14T01:44:55.654Z,26.9
2015-05-14T01:45:14.266Z,26.9
2015-05-14T01:45:32.953Z,26.9
2015-05-14T01:45:51.391Z,26.9
2015-05-14T01:46:10.050Z,26.9
2015-05-14T01:46:28.706Z,26.9
2015-05-14T01:46:47.331Z,26.9
2015-05-14T01:47:05.909Z,26.9
2015-05-14T01:47:24.427Z,26.9
2015-05-14T01:47:42.286Z,26.9
2015-05-14T01:48:00.786Z,26.9
2015-05-14T01:48:18.804Z,26.8
2015-05-14T01:48:37.195Z,26.8
2015-05-14T01:48:55.804Z,26.8
2015-05-14T01:49:14.398Z,26.8
2015-05-14T01:49:32.791Z,26.8
2015-05-14T01:49:51.229Z,26.8
2015-05-14T01:50:09.713Z,26.8
2015-05-14T01:50:28.496Z,26.9
2015-05-14T01:50:47.184Z,26.9
2015-05-14T01:51:05.590Z,26.9
2015-05-14T01:51:24.405Z,26.9
2015-05-14T01:51:42.795Z,26.9
2015-05-14T01:52:01.202Z,26.9
2015-05-14T01:52:19.625Z,26.9
2015-05-14T01:52:38.032Z,26.8
2015-05-14T01:52:56.797Z,26.9
2015-05-14T01:53:15.422Z,26.9
2015-05-14T01:53:34.082Z,26.9
2015-05-14T01:53:53.019Z,26.9
2015-05-14T01:54:11.535Z,26.9
2015-05-14T01:54:30.005Z,26.9
2015-05-14T01:54:48.709Z,26.9
2015-05-14T01:55:07.209Z,26.9
2015-05-14T01:55:25.851Z,26.9
2015-05-14T01:55:44.336Z,26.9
2015-05-14T01:56:02.929Z,26.9
2015-05-14T01:56:21.401Z,26.9
2015-05-14T01:56:39.948Z,26.9
2015-05-14T01:56:58.339Z,26.9
2015-05-14T01:57:16.917Z,26.9
2015-05-14T01:57:35.326Z,26.9
2015-05-14T01:57:53.888Z,26.9
2015-05-14T01:58:12.295Z,26.9
2015-05-14T01:58:30.875Z,26.9
2015-05-14T01:58:49.390Z,26.9
2015-05-14T01:59:07.812Z,26.9
2015-05-14T01:59:26.471Z,26.9
2015-05-14T01:59:44.908Z,26.9
2015-05-14T02:00:03.502Z,26.9
2015-05-14T02:00:21.939Z,26.9
2015-05-14T02:00:40.551Z,27
2015-05-14T02:00:59.191Z,27
2015-05-14T02:01:17.894Z,27
2015-05-14T02:01:36.334Z,27
2015-05-14T02:01:54.818Z,27
2015-05-14T02:02:13.350Z,27
2015-05-14T02:02:31.790Z,27
2015-05-14T02:02:50.337Z,27
2015-05-14T02:03:08.774Z,27
2015-05-14T02:03:27.493Z,27
2015-05-14T02:03:46.198Z,27
2015-05-14T02:04:04.589Z,27
2015-05-14T02:04:23.261Z,27
2015-05-14T02:04:41.842Z,27.1
2015-05-14T02:05:00.576Z,27.1
2015-05-14T02:05:19.311Z,27.1
2015-05-14T02:05:37.845Z,27.1
2015-05-14T02:05:56.251Z,27.1
2015-05-14T02:06:14.829Z,27.1
2015-05-14T02:06:33.220Z,27.1
2015-05-14T02:06:51.675Z,27.1
2015-05-14T02:07:10.566Z,27.1
2015-05-14T02:07:29.284Z,27.1
2015-05-14T02:07:47.771Z,27.1
2015-05-14T02:08:06.661Z,27.1
2015-05-14T02:08:25.068Z,27.1
2015-05-14T02:08:43.601Z,27.1
2015-05-14T02:09:02.163Z,27.1
2015-05-14T02:09:20.898Z,27.1
2015-05-14T02:09:39.554Z,27.1
2015-05-14T02:09:58.370Z,27.1
2015-05-14T02:10:17.151Z,27.1
2015-05-14T02:10:35.916Z,27.1
2015-05-14T02:10:54.340Z,27.1
2015-05-14T02:11:12.825Z,27.1
2015-05-14T02:11:31.262Z,27.1
2015-05-14T02:11:49.780Z,27.1
2015-05-14T02:12:08.374Z,27.1
2015-05-14T02:12:26.733Z,27.1
2015-05-14T02:12:45.126Z,27.1
2015-05-14T02:13:02.907Z,27.1
2015-05-14T02:13:21.235Z,27.1
2015-05-14T02:13:39.547Z,27.1
2015-05-14T02:14:07.082Z,27.1
2015-05-14T02:14:25.379Z,27.1
2015-05-14T02:14:44.132Z,27.1
2015-05-14T02:15:02.725Z,27.1
2015-05-14T02:15:21.022Z,27.1
2015-05-14T02:15:39.428Z,27.2
2015-05-14T02:15:57.493Z,27.2
2015-05-14T02:16:15.930Z,27.2
2015-05-14T02:16:34.243Z,27.2
2015-05-14T02:16:52.839Z,27.2
2015-05-14T02:17:11.495Z,27.2
2015-05-14T02:17:30.214Z,27.2
2015-05-14T02:17:48.667Z,27.2
2015-05-14T02:18:07.122Z,27.2
2015-05-14T02:18:25.731Z,27.2
2015-05-14T02:18:44.153Z,27.2
2015-05-14T02:19:02.828Z,27.2
2015-05-14T02:19:21.250Z,27.2
2015-05-14T02:19:39.844Z,27.2
2015-05-14T02:19:58.234Z,27.2
2015-05-14T02:20:17.080Z,27.2
2015-05-14T02:20:35.549Z,27.2
2015-05-14T02:20:53.955Z,27.2
2015-05-14T02:21:12.646Z,27.2
2015-05-14T02:21:31.239Z,27.2
2015-05-14T02:21:49.724Z,27.2
2015-05-14T02:22:08.226Z,27.2
2015-05-14T02:22:26.694Z,27.2
2015-05-14T02:22:45.163Z,27.2
2015-05-14T02:23:03.947Z,27.2
2015-05-14T02:23:22.432Z,27.2
2015-05-14T02:23:40.885Z,27.2
2015-05-14T02:23:59.307Z,27.2
2015-05-14T02:24:17.856Z,27.2
2015-05-14T02:24:36.434Z,27.2
2015-05-14T02:24:55.121Z,27.2
2015-05-14T02:25:13.623Z,27.2
2015-05-14T02:25:32.092Z,27.2
2015-05-14T02:25:50.780Z,27.2
2015-05-14T02:26:08.610Z,27.2
2015-05-14T02:26:27.063Z,27.2
2015-05-14T02:26:45.500Z,27.2
2015-05-14T02:27:03.985Z,27.2
2015-05-14T02:27:22.471Z,27.2
2015-05-14T02:27:41.034Z,27.2
2015-05-14T02:27:59.612Z,27.2
2015-05-14T02:28:18.224Z,27.3
2015-05-14T02:28:36.865Z,27.2
2015-05-14T02:28:55.271Z,27.2
2015-05-14T02:29:13.835Z,27.2
2015-05-14T02:29:32.554Z,27.3
2015-05-14T02:29:51.148Z,27.2
2015-05-14T02:30:09.806Z,27.3
2015-05-14T02:30:28.337Z,27.3
2015-05-14T02:30:46.806Z,27.3
2015-05-14T02:31:05.353Z,27.3
2015-05-14T02:31:23.903Z,27.3
2015-05-14T02:31:42.309Z,27.3
2015-05-14T02:32:00.700Z,27.3
2015-05-14T02:32:19.281Z,27.2
2015-05-14T02:32:37.625Z,27.2
2015-05-14T02:32:56.078Z,27.2
2015-05-14T02:33:14.502Z,27.2
2015-05-14T02:33:32.924Z,27.2
2015-05-14T02:33:51.486Z,27.2
2015-05-14T02:34:09.845Z,27.2
2015-05-14T02:34:28.441Z,27.2
2015-05-14T02:34:46.832Z,27.2
2015-05-14T02:35:05.332Z,27.2
2015-05-14T02:35:23.756Z,27.2
2015-05-14T02:35:42.099Z,27.2
2015-05-14T02:36:00.584Z,27.2
2015-05-14T02:36:18.993Z,27.2
2015-05-14T02:36:37.415Z,27.2
2015-05-14T02:36:55.837Z,27.2
2015-05-14T02:37:14.243Z,27.2
2015-05-14T02:37:32.543Z,27.2
2015-05-14T02:37:51.027Z,27.2
2015-05-14T02:38:09.340Z,27.2
2015-05-14T02:38:27.982Z,27.2
2015-05-14T02:38:46.295Z,27.2
2015-05-14T02:39:04.764Z,27.2
2015-05-14T02:39:23.420Z,27.2
2015-05-14T02:39:41.859Z,27.2
2015-05-14T02:40:00.219Z,27.2
2015-05-14T02:40:18.703Z,27.2
2015-05-14T02:40:36.472Z,27.2
2015-05-14T02:40:54.909Z,27.2
2015-05-14T02:41:13.222Z,27.2
2015-05-14T02:41:31.691Z,27.2
2015-05-14T02:41:50.490Z,27.2
2015-05-14T02:42:08.897Z,27.2
2015-05-14T02:42:27.381Z,27.2
2015-05-14T02:42:45.914Z,27.2
2015-05-14T02:43:04.274Z,27.2
2015-05-14T02:43:22.758Z,27.2
2015-05-14T02:43:41.102Z,27.2
2015-05-14T02:43:59.494Z,27.2
2015-05-14T02:44:17.948Z,27.2
2015-05-14T02:44:36.698Z,27.2
2015-05-14T02:44:55.340Z,27.2
2015-05-14T02:45:13.856Z,27.2
2015-05-14T02:45:32.262Z,27.2
2015-05-14T02:45:50.765Z,27.2
2015-05-14T02:46:09.328Z,27.2
2015-05-14T02:46:27.796Z,27.2
2015-05-14T02:46:46.392Z,27.2
2015-05-14T02:47:04.939Z,27.2
2015-05-14T02:47:23.376Z,27.2
2015-05-14T02:47:41.783Z,27.2
2015-05-14T02:48:00.285Z,27.2
2015-05-14T02:48:18.800Z,27.2
2015-05-14T02:48:37.222Z,27.2
2015-05-14T02:48:55.788Z,27.2
2015-05-14T02:49:14.272Z,27.2
2015-05-14T02:49:32.710Z,27.2
2015-05-14T02:49:51.180Z,27.2
2015-05-14T02:50:09.571Z,27.2
2015-05-14T02:50:27.977Z,27.2
2015-05-14T02:50:46.430Z,27.2
2015-05-14T02:51:04.964Z,27.2
2015-05-14T02:51:23.448Z,27.2
2015-05-14T02:51:41.979Z,27.2
2015-05-14T02:52:00.576Z,27.2
2015-05-14T02:52:18.982Z,27.2
2015-05-14T02:52:37.513Z,27.1
2015-05-14T02:52:56.125Z,27.1
2015-05-14T02:53:14.547Z,27.1
2015-05-14T02:53:33.156Z,27.1
2015-05-14T02:53:51.877Z,27.1
2015-05-14T02:54:10.471Z,27.1
2015-05-14T02:54:28.971Z,27.1
2015-05-14T02:54:47.471Z,27.1
2015-05-14T02:55:05.911Z,27.1
2015-05-14T02:55:24.286Z,27.1
2015-05-14T02:55:43.020Z,27.1
2015-05-14T02:56:01.523Z,27.1
2015-05-14T02:56:20.008Z,27.1
2015-05-14T02:56:38.664Z,27.1
2015-05-14T02:56:57.087Z,27.1
2015-05-14T02:57:15.681Z,27.1
2015-05-14T02:57:34.181Z,27.1
2015-05-14T02:57:52.603Z,27.1
2015-05-14T02:58:11.152Z,27.1
2015-05-14T02:58:29.809Z,27.1
2015-05-14T02:58:48.637Z,27.1
2015-05-14T02:59:07.248Z,27.1
2015-05-14T02:59:25.811Z,27.1
2015-05-14T02:59:44.201Z,27.1
2015-05-14T03:00:02.689Z,27.1
2015-05-14T03:00:21.079Z,27.1
2015-05-14T03:00:39.189Z,27.1
2015-05-14T03:00:57.689Z,27.1
2015-05-14T03:01:16.175Z,27.1
2015-05-14T03:01:34.628Z,27.1
2015-05-14T03:01:53.331Z,27.1
2015-05-14T03:02:12.209Z,27.1
2015-05-14T03:02:30.741Z,27.1
2015-05-14T03:02:49.350Z,27.1
2015-05-14T03:03:07.912Z,27.1
2015-05-14T03:03:26.368Z,27
2015-05-14T03:03:44.977Z,27
2015-05-14T03:04:03.383Z,27
2015-05-14T03:04:21.823Z,27
2015-05-14T03:04:40.245Z,27
2015-05-14T03:04:58.870Z,27
2015-05-14T03:05:17.338Z,27
2015-05-14T03:05:35.779Z,27
2015-05-14T03:05:54.294Z,27
2015-05-14T03:06:13.060Z,27
2015-05-14T03:06:31.859Z,27
2015-05-14T03:06:50.359Z,27
2015-05-14T03:07:08.953Z,27
2015-05-14T03:07:27.393Z,27
2015-05-14T03:07:45.878Z,27
2015-05-14T03:08:04.643Z,27
2015-05-14T03:08:23.160Z,27
2015-05-14T03:08:41.879Z,26.9
2015-05-14T03:09:00.535Z,26.9
2015-05-14T03:09:19.207Z,26.9
2015-05-14T03:09:37.633Z,26.9
2015-05-14T03:09:56.023Z,26.9
2015-05-14T03:10:14.523Z,26.9
2015-05-14T03:10:32.963Z,26.9
2015-05-14T03:10:51.494Z,26.9
2015-05-14T03:11:10.181Z,26.9
2015-05-14T03:11:28.746Z,26.9
2015-05-14T03:11:47.465Z,26.9
2015-05-14T03:12:06.012Z,26.9
2015-05-14T03:12:24.605Z,26.9
2015-05-14T03:12:43.076Z,26.9
2015-05-14T03:13:01.529Z,26.9
2015-05-14T03:13:20.107Z,26.9
2015-05-14T03:13:38.501Z,26.9
2015-05-14T03:13:56.907Z,26.9
2015-05-14T03:14:15.470Z,26.9
2015-05-14T03:14:34.019Z,27
2015-05-14T03:14:52.425Z,27
2015-05-14T03:15:11.144Z,27
2015-05-14T03:15:29.614Z,27
2015-05-14T03:15:48.021Z,27
2015-05-14T03:16:06.817Z,27
2015-05-14T03:16:25.364Z,27
2015-05-14T03:16:43.774Z,27
2015-05-14T03:17:02.508Z,27
2015-05-14T03:17:20.930Z,27
2015-05-14T03:17:39.135Z,27
2015-05-14T03:17:57.791Z,27
2015-05-14T03:18:16.385Z,27
2015-05-14T03:18:35.044Z,27
2015-05-14T03:18:53.654Z,27
2015-05-14T03:19:12.169Z,27
2015-05-14T03:19:30.794Z,27
2015-05-14T03:19:49.562Z,27
2015-05-14T03:20:08.124Z,27.1
2015-05-14T03:20:26.546Z,27.1
2015-05-14T03:20:45.190Z,27.1
2015-05-14T03:21:03.815Z,27.1
2015-05-14T03:21:22.221Z,27.1
2015-05-14T03:21:40.893Z,27.1
2015-05-14T03:21:59.426Z,27.1
2015-05-14T03:22:18.051Z,27.1
2015-05-14T03:22:36.536Z,27.1
2015-05-14T03:22:55.163Z,27.1
2015-05-14T03:23:13.678Z,27.1
2015-05-14T03:23:32.194Z,27.1
2015-05-14T03:23:50.694Z,27.1
2015-05-14T03:24:09.431Z,27.1
2015-05-14T03:24:28.009Z,27.2
2015-05-14T03:24:46.509Z,27.2
2015-05-14T03:25:04.902Z,27.2
2015-05-14T03:25:23.402Z,27.2
2015-05-14T03:25:41.918Z,27.2
2015-05-14T03:26:00.623Z,27.2
2015-05-14T03:26:19.279Z,27.2
2015-05-14T03:26:38.076Z,27.1
2015-05-14T03:26:56.485Z,27.2
2015-05-14T03:27:15.016Z,27.1
2015-05-14T03:27:33.469Z,27.2
2015-05-14T03:27:51.891Z,27.2
2015-05-14T03:28:10.346Z,27.1
2015-05-14T03:28:28.815Z,27.2
2015-05-14T03:28:47.284Z,27.2
2015-05-14T03:29:05.881Z,27.2
2015-05-14T03:29:24.271Z,27.2
2015-05-14T03:29:42.740Z,27.2
2015-05-14T03:30:01.288Z,27.2
2015-05-14T03:30:19.882Z,27.2
2015-05-14T03:30:38.272Z,27.2
2015-05-14T03:30:56.725Z,27.2
2015-05-14T03:31:15.119Z,27.2
2015-05-14T03:31:33.838Z,27.2
2015-05-14T03:31:52.228Z,27.2
2015-05-14T03:32:10.730Z,27.2
2015-05-14T03:32:29.168Z,27.2
2015-05-14T03:32:47.777Z,27.2
2015-05-14T03:33:06.171Z,27.2
2015-05-14T03:33:24.655Z,27.2
2015-05-14T03:33:43.296Z,27.1
2015-05-14T03:34:01.860Z,27.1
2015-05-14T03:34:20.298Z,27.1
2015-05-14T03:34:38.751Z,27.1
2015-05-14T03:34:57.267Z,27.1
2015-05-14T03:35:15.659Z,27.1
2015-05-14T03:35:34.050Z,27.1
2015-05-14T03:35:52.472Z,27.1
2015-05-14T03:36:10.897Z,27.1
2015-05-14T03:36:29.444Z,27.1
2015-05-14T03:36:47.865Z,27.1
2015-05-14T03:37:06.446Z,27.1
2015-05-14T03:37:24.883Z,27.2
2015-05-14T03:37:43.446Z,27.2
2015-05-14T03:38:02.071Z,27.2
2015-05-14T03:38:20.651Z,27.2
2015-05-14T03:38:39.073Z,27.2
2015-05-14T03:38:57.651Z,27.2
2015-05-14T03:39:16.122Z,27.2
2015-05-14T03:39:34.685Z,27.2
2015-05-14T03:39:53.372Z,27.2
2015-05-14T03:40:11.718Z,27.2
2015-05-14T03:40:30.359Z,27.2
2015-05-14T03:40:48.781Z,27.2
2015-05-14T03:41:07.374Z,27.2
2015-05-14T03:41:25.970Z,27.2
2015-05-14T03:41:44.658Z,27.2
2015-05-14T03:42:03.126Z,27.2
2015-05-14T03:42:21.770Z,27.2
2015-05-14T03:42:40.286Z,27.2
2015-05-14T03:42:58.911Z,27.2
2015-05-14T03:43:17.489Z,27.2
2015-05-14T03:43:36.085Z,27.2
2015-05-14T03:43:54.569Z,27.2
2015-05-14T03:44:13.131Z,27.2
2015-05-14T03:44:31.759Z,27.2
2015-05-14T03:44:50.197Z,27.2
2015-05-14T03:45:08.822Z,27.2
2015-05-14T03:45:27.480Z,27.2
2015-05-14T03:45:45.215Z,27.2
2015-05-14T03:46:03.668Z,27.2
2015-05-14T03:46:22.199Z,27.2
2015-05-14T03:46:40.843Z,27.2
2015-05-14T03:46:59.421Z,27.2
2015-05-14T03:47:17.827Z,27.2
2015-05-14T03:47:36.266Z,27.2
2015-05-14T03:47:54.907Z,27.2
2015-05-14T03:48:13.501Z,27.2
2015-05-14T03:48:31.988Z,27.2
2015-05-14T03:48:50.582Z,27.2
2015-05-14T03:49:09.082Z,27.2
2015-05-14T03:49:27.709Z,27.2
2015-05-14T03:49:46.146Z,27.2
2015-05-14T03:50:04.693Z,27.2
2015-05-14T03:50:23.162Z,27.2
2015-05-14T03:50:41.633Z,27.2
2015-05-14T03:51:00.023Z,27.2
2015-05-14T03:51:18.523Z,27.2
2015-05-14T03:51:37.214Z,27.2
2015-05-14T03:51:55.964Z,27.2
2015-05-14T03:52:14.542Z,27.2
2015-05-14T03:52:32.887Z,27.2
2015-05-14T03:52:51.402Z,27.1
2015-05-14T03:53:10.059Z,27.2
2015-05-14T03:53:28.646Z,27.1
2015-05-14T03:53:47.195Z,27.1
2015-05-14T03:54:05.726Z,27.1
2015-05-14T03:54:24.132Z,27.1
2015-05-14T03:54:42.807Z,27.1
2015-05-14T03:55:01.385Z,27.2
2015-05-14T03:55:19.838Z,27.2
2015-05-14T03:55:38.388Z,27.2
2015-05-14T03:55:57.060Z,27.2
2015-05-14T03:56:15.654Z,27.2
2015-05-14T03:56:34.065Z,27.2
2015-05-14T03:56:52.830Z,27.2
2015-05-14T03:57:11.440Z,27.2
2015-05-14T03:57:29.830Z,27.2
2015-05-14T03:57:48.271Z,27.2
2015-05-14T03:58:06.974Z,27.2
2015-05-14T03:58:25.677Z,27.2
2015-05-14T03:58:44.273Z,27.2
2015-05-14T03:59:02.820Z,27.2
2015-05-14T03:59:21.523Z,27.2
2015-05-14T03:59:40.198Z,27.2
2015-05-14T03:59:58.651Z,27.2
2015-05-14T04:00:17.073Z,27.2
2015-05-14T04:00:35.635Z,27.2
2015-05-14T04:00:54.372Z,27.2
2015-05-14T04:01:13.044Z,27.2
2015-05-14T04:01:31.450Z,27.2
2015-05-14T04:01:50.578Z,27.2
2015-05-14T04:02:09.187Z,27.2
2015-05-14T04:02:27.718Z,27.2
2015-05-14T04:02:46.375Z,27.2
2015-05-14T04:03:04.877Z,27.2
2015-05-14T04:03:23.517Z,27.2
2015-05-14T04:03:41.924Z,27.2
2015-05-14T04:04:00.348Z,27.2
2015-05-14T04:04:18.848Z,27.2
2015-05-14T04:04:37.661Z,27.2
2015-05-14T04:04:56.085Z,27.2
2015-05-14T04:05:13.975Z,27.2
2015-05-14T04:05:32.444Z,27.3
2015-05-14T04:05:50.862Z,27.3
2015-05-14T04:06:09.331Z,27.3
2015-05-14T04:06:27.816Z,27.3
2015-05-14T04:06:46.206Z,27.3
2015-05-14T04:07:04.692Z,27.3
2015-05-14T04:07:23.145Z,27.3
2015-05-14T04:07:41.754Z,27.3
2015-05-14T04:08:00.287Z,27.3
2015-05-14T04:08:18.693Z,27.3
2015-05-14T04:08:37.225Z,27.3